BCS1WA EDDK-EDDS
Flight info
| Callsign | BCS1WA |
|---|---|
| Flight time | 0h 41m |
| Altitude | 23000 |
| Route | KUMIK1B KUMIK L603 BOMBI N850 KRH T128 BADSO BADSO2A |
| Aircraft | A333/H-SDE3GHIJ2J3J5M1RVWXY/LB2D1 |
Departure
| Time | 2026-05-05 22:05 |
|---|---|
| Airport | Cologne Bonn Airport (EDDK) |
Arrival
| Time | 2026-05-05 22:47 |
|---|---|
| Airport | Stuttgart Airport (EDDS) |
| Time | Latitude | Longitude | Altitude | Speed | Heading |
|---|---|---|---|---|---|
| 2026-05-05 21:35 | 50.87230 | 7.13282 | 236 ft | 0 kts | 227° |
| 2026-05-05 21:53 | 50.87231 | 7.13284 | 236 ft | 2 kts | 227° |
| 2026-05-05 21:54 | 50.87248 | 7.13314 | 236 ft | 4 kts | 227° |
| 2026-05-05 21:54 | 50.87266 | 7.13345 | 236 ft | 4 kts | 227° |
| 2026-05-05 21:54 | 50.87282 | 7.13371 | 236 ft | 4 kts | 206° |
| 2026-05-05 21:54 | 50.87303 | 7.13373 | 242 ft | 4 kts | 142° |
| 2026-05-05 21:55 | 50.87320 | 7.13349 | 241 ft | 1 kts | 137° |
| 2026-05-05 21:55 | 50.87324 | 7.13344 | 241 ft | 1 kts | 137° |
| 2026-05-05 21:58 | 50.87303 | 7.13374 | 242 ft | 11 kts | 137° |
| 2026-05-05 21:58 | 50.87249 | 7.13451 | 238 ft | 9 kts | 137° |
| 2026-05-05 21:58 | 50.87212 | 7.13505 | 239 ft | 6 kts | 137° |
| 2026-05-05 21:59 | 50.87171 | 7.13564 | 241 ft | 13 kts | 137° |
| 2026-05-05 21:59 | 50.87096 | 7.13673 | 244 ft | 17 kts | 137° |
| 2026-05-05 21:59 | 50.86997 | 7.13815 | 247 ft | 21 kts | 137° |
| 2026-05-05 21:59 | 50.86888 | 7.13972 | 257 ft | 21 kts | 137° |
| 2026-05-05 22:00 | 50.86788 | 7.14110 | 259 ft | 17 kts | 146° |
| 2026-05-05 22:00 | 50.86713 | 7.14180 | 261 ft | 9 kts | 148° |
| 2026-05-05 22:00 | 50.86666 | 7.14237 | 264 ft | 12 kts | 137° |
| 2026-05-05 22:00 | 50.86574 | 7.14366 | 265 ft | 20 kts | 139° |
| 2026-05-05 22:01 | 50.86483 | 7.14500 | 271 ft | 15 kts | 137° |
| 2026-05-05 22:01 | 50.86405 | 7.14614 | 276 ft | 16 kts | 137° |
| 2026-05-05 22:01 | 50.86322 | 7.14736 | 280 ft | 16 kts | 137° |
| 2026-05-05 22:01 | 50.86248 | 7.14843 | 285 ft | 17 kts | 138° |
| 2026-05-05 22:02 | 50.86127 | 7.15018 | 295 ft | 29 kts | 137° |
| 2026-05-05 22:02 | 50.85987 | 7.15218 | 299 ft | 25 kts | 137° |
| 2026-05-05 22:02 | 50.85868 | 7.15390 | 304 ft | 21 kts | 137° |
| 2026-05-05 22:02 | 50.85768 | 7.15533 | 307 ft | 18 kts | 137° |
| 2026-05-05 22:03 | 50.85669 | 7.15680 | 310 ft | 19 kts | 138° |
| 2026-05-05 22:03 | 50.85550 | 7.15852 | 311 ft | 26 kts | 137° |
| 2026-05-05 22:03 | 50.85421 | 7.16039 | 311 ft | 23 kts | 138° |
| 2026-05-05 22:03 | 50.85339 | 7.16238 | 314 ft | 21 kts | 99° |
| 2026-05-05 22:04 | 50.85371 | 7.16423 | 315 ft | 15 kts | 47° |
| 2026-05-05 22:04 | 50.85451 | 7.16505 | 312 ft | 13 kts | 18° |
| 2026-05-05 22:04 | 50.85538 | 7.16504 | 311 ft | 12 kts | 346° |
| 2026-05-05 22:04 | 50.85602 | 7.16447 | 315 ft | 10 kts | 320° |
| 2026-05-05 22:05 | 50.85737 | 7.16255 | 315 ft | 53 kts | 317° |
| 2026-05-05 22:05 | 50.86174 | 7.15625 | 301 ft | 115 kts | 318° |
| 2026-05-05 22:05 | 50.86904 | 7.14574 | 305 ft | 165 kts | 318° |
| 2026-05-05 22:05 | 50.87757 | 7.13359 | 1042 ft | 165 kts | 318° |
| 2026-05-05 22:06 | 50.88624 | 7.12130 | 1698 ft | 179 kts | 322° |
| 2026-05-05 22:06 | 50.89804 | 7.11252 | 2105 ft | 198 kts | 353° |
| 2026-05-05 22:06 | 50.91182 | 7.11647 | 2647 ft | 211 kts | 24° |
| 2026-05-05 22:06 | 50.92503 | 7.12758 | 3373 ft | 217 kts | 32° |
| 2026-05-05 22:07 | 50.93617 | 7.14373 | 4160 ft | 222 kts | 53° |
| 2026-05-05 22:07 | 50.94443 | 7.16572 | 4598 ft | 242 kts | 62° |
| 2026-05-05 22:07 | 50.95204 | 7.19040 | 5072 ft | 257 kts | 64° |
| 2026-05-05 22:07 | 50.96001 | 7.21662 | 5635 ft | 270 kts | 64° |
| 2026-05-05 22:08 | 50.96837 | 7.24371 | 6452 ft | 276 kts | 63° |
| 2026-05-05 22:08 | 50.97691 | 7.27114 | 7325 ft | 279 kts | 63° |
| 2026-05-05 22:08 | 50.98561 | 7.29889 | 8202 ft | 283 kts | 63° |
| 2026-05-05 22:08 | 50.99446 | 7.32703 | 9097 ft | 287 kts | 63° |
| 2026-05-05 22:09 | 51.00345 | 7.35558 | 9937 ft | 292 kts | 62° |
| 2026-05-05 22:09 | 51.01282 | 7.38521 | 10359 ft | 311 kts | 65° |
| 2026-05-05 22:09 | 51.01856 | 7.41957 | 10577 ft | 335 kts | 86° |
| 2026-05-05 22:09 | 51.01565 | 7.45725 | 10799 ft | 355 kts | 104° |
| 2026-05-05 22:10 | 51.00846 | 7.49545 | 11384 ft | 365 kts | 107° |
| 2026-05-05 22:10 | 51.00063 | 7.53402 | 12093 ft | 370 kts | 108° |
| 2026-05-05 22:10 | 50.99271 | 7.57316 | 12843 ft | 375 kts | 108° |
| 2026-05-05 22:10 | 50.98474 | 7.61297 | 13520 ft | 381 kts | 108° |
| 2026-05-05 22:11 | 50.97673 | 7.65325 | 14186 ft | 385 kts | 108° |
| 2026-05-05 22:11 | 50.96866 | 7.69398 | 14877 ft | 388 kts | 108° |
| 2026-05-05 22:11 | 50.96055 | 7.73493 | 15571 ft | 391 kts | 107° |
| 2026-05-05 22:11 | 50.95237 | 7.77621 | 16255 ft | 394 kts | 108° |
| 2026-05-05 22:12 | 50.94304 | 7.81671 | 16896 ft | 397 kts | 115° |
| 2026-05-05 22:12 | 50.92938 | 7.85494 | 17567 ft | 399 kts | 122° |
| 2026-05-05 22:12 | 50.91416 | 7.89188 | 18213 ft | 402 kts | 123° |
| 2026-05-05 22:12 | 50.89859 | 7.92888 | 18782 ft | 405 kts | 124° |
| 2026-05-05 22:13 | 50.88291 | 7.96609 | 19368 ft | 407 kts | 124° |
| 2026-05-05 22:13 | 50.86720 | 8.00345 | 19938 ft | 410 kts | 124° |
| 2026-05-05 22:13 | 50.85138 | 8.04108 | 20479 ft | 411 kts | 124° |
| 2026-05-05 22:13 | 50.83555 | 8.07889 | 20757 ft | 412 kts | 124° |
| 2026-05-05 22:14 | 50.81981 | 8.11685 | 20901 ft | 414 kts | 123° |
| 2026-05-05 22:14 | 50.80396 | 8.15506 | 21403 ft | 416 kts | 123° |
| 2026-05-05 22:14 | 50.78804 | 8.19328 | 22012 ft | 417 kts | 123° |
| 2026-05-05 22:14 | 50.77201 | 8.23155 | 22594 ft | 418 kts | 123° |
| 2026-05-05 22:15 | 50.75588 | 8.26986 | 23140 ft | 420 kts | 124° |
| 2026-05-05 22:15 | 50.73961 | 8.30833 | 23634 ft | 422 kts | 124° |
| 2026-05-05 22:15 | 50.72300 | 8.34654 | 24080 ft | 423 kts | 127° |
| 2026-05-05 22:15 | 50.70369 | 8.38157 | 24518 ft | 424 kts | 136° |
| 2026-05-05 22:16 | 50.68045 | 8.41028 | 24993 ft | 425 kts | 147° |
| 2026-05-05 22:16 | 50.65458 | 8.43288 | 25431 ft | 427 kts | 152° |
| 2026-05-05 22:16 | 50.62745 | 8.45240 | 25747 ft | 431 kts | 155° |
| 2026-05-05 22:16 | 50.59944 | 8.47027 | 25801 ft | 437 kts | 156° |
| 2026-05-05 22:17 | 50.57095 | 8.48739 | 25804 ft | 440 kts | 157° |
| 2026-05-05 22:17 | 50.54235 | 8.50431 | 25810 ft | 438 kts | 157° |
| 2026-05-05 22:17 | 50.51388 | 8.52128 | 25810 ft | 437 kts | 157° |
| 2026-05-05 22:17 | 50.48553 | 8.53844 | 25809 ft | 436 kts | 156° |
| 2026-05-05 22:18 | 50.45730 | 8.55576 | 25816 ft | 436 kts | 156° |
| 2026-05-05 22:18 | 50.42904 | 8.57327 | 25815 ft | 436 kts | 156° |
| 2026-05-05 22:18 | 50.40085 | 8.59081 | 25815 ft | 436 kts | 156° |
| 2026-05-05 22:18 | 50.37273 | 8.60832 | 25812 ft | 436 kts | 156° |
| 2026-05-05 22:19 | 50.34446 | 8.62591 | 25816 ft | 436 kts | 156° |
| 2026-05-05 22:19 | 50.31625 | 8.64343 | 25818 ft | 436 kts | 156° |
| 2026-05-05 22:19 | 50.28798 | 8.66097 | 25813 ft | 437 kts | 157° |
| 2026-05-05 22:19 | 50.25973 | 8.67845 | 25813 ft | 438 kts | 157° |
| 2026-05-05 22:20 | 50.23166 | 8.69579 | 25808 ft | 438 kts | 157° |
| 2026-05-05 22:20 | 50.20331 | 8.71327 | 25806 ft | 438 kts | 157° |
| 2026-05-05 22:20 | 50.17493 | 8.73075 | 25806 ft | 438 kts | 157° |
| 2026-05-05 22:20 | 50.14663 | 8.74817 | 25807 ft | 438 kts | 157° |
| 2026-05-05 22:21 | 50.11828 | 8.76559 | 25804 ft | 438 kts | 157° |
| 2026-05-05 22:21 | 50.08948 | 8.78129 | 25801 ft | 439 kts | 163° |
| 2026-05-05 22:21 | 50.05946 | 8.79023 | 25803 ft | 441 kts | 173° |
| 2026-05-05 22:21 | 50.02877 | 8.79068 | 25809 ft | 442 kts | 181° |
| 2026-05-05 22:22 | 49.99809 | 8.79038 | 25807 ft | 439 kts | 171° |
| 2026-05-05 22:22 | 49.96843 | 8.80055 | 25674 ft | 434 kts | 162° |
| 2026-05-05 22:22 | 49.93988 | 8.81537 | 25079 ft | 431 kts | 159° |
| 2026-05-05 22:22 | 49.91178 | 8.83085 | 24540 ft | 426 kts | 160° |
| 2026-05-05 22:23 | 49.88395 | 8.84600 | 24014 ft | 422 kts | 160° |
| 2026-05-05 22:23 | 49.85630 | 8.86078 | 23438 ft | 419 kts | 160° |
| 2026-05-05 22:23 | 49.82886 | 8.87526 | 22729 ft | 416 kts | 161° |
| 2026-05-05 22:23 | 49.80151 | 8.88958 | 22092 ft | 413 kts | 161° |
| 2026-05-05 22:24 | 49.77442 | 8.90368 | 21469 ft | 409 kts | 161° |
| 2026-05-05 22:24 | 49.74754 | 8.91763 | 20846 ft | 406 kts | 161° |
| 2026-05-05 22:24 | 49.72086 | 8.93145 | 20236 ft | 403 kts | 161° |
| 2026-05-05 22:24 | 49.69443 | 8.94512 | 19641 ft | 399 kts | 161° |
| 2026-05-05 22:25 | 49.66815 | 8.95868 | 19041 ft | 396 kts | 162° |
| 2026-05-05 22:25 | 49.64207 | 8.97212 | 18449 ft | 394 kts | 162° |
| 2026-05-05 22:25 | 49.61620 | 8.98543 | 17822 ft | 391 kts | 162° |
| 2026-05-05 22:25 | 49.59060 | 8.99858 | 17231 ft | 386 kts | 162° |
| 2026-05-05 22:26 | 49.56523 | 9.01160 | 16530 ft | 384 kts | 163° |
| 2026-05-05 22:26 | 49.53995 | 9.02457 | 15862 ft | 382 kts | 163° |
| 2026-05-05 22:26 | 49.51483 | 9.03746 | 15243 ft | 379 kts | 163° |
| 2026-05-05 22:26 | 49.48992 | 9.05022 | 14649 ft | 376 kts | 163° |
| 2026-05-05 22:27 | 49.46515 | 9.06290 | 14015 ft | 374 kts | 163° |
| 2026-05-05 22:27 | 49.44052 | 9.07548 | 13408 ft | 371 kts | 163° |
| 2026-05-05 22:27 | 49.41609 | 9.08794 | 12768 ft | 368 kts | 163° |
| 2026-05-05 22:27 | 49.39196 | 9.10024 | 12144 ft | 365 kts | 163° |
| 2026-05-05 22:28 | 49.36795 | 9.11247 | 11571 ft | 361 kts | 163° |
| 2026-05-05 22:28 | 49.34432 | 9.12449 | 11141 ft | 352 kts | 163° |
| 2026-05-05 22:28 | 49.32181 | 9.13599 | 10868 ft | 330 kts | 163° |
| 2026-05-05 22:28 | 49.30098 | 9.14662 | 10611 ft | 308 kts | 164° |
| 2026-05-05 22:29 | 49.28119 | 9.15666 | 10272 ft | 292 kts | 164° |
| 2026-05-05 22:29 | 49.26188 | 9.16637 | 9754 ft | 285 kts | 165° |
| 2026-05-05 22:29 | 49.24352 | 9.17558 | 9456 ft | 271 kts | 165° |
| 2026-05-05 22:29 | 49.22617 | 9.18429 | 9073 ft | 262 kts | 165° |
| 2026-05-05 22:30 | 49.20873 | 9.19302 | 8562 ft | 259 kts | 165° |
| 2026-05-05 22:30 | 49.19169 | 9.20156 | 8054 ft | 257 kts | 165° |
| 2026-05-05 22:30 | 49.17500 | 9.20994 | 7539 ft | 255 kts | 165° |
| 2026-05-05 22:30 | 49.15816 | 9.21840 | 7099 ft | 255 kts | 165° |
| 2026-05-05 22:31 | 49.14141 | 9.22685 | 6729 ft | 252 kts | 165° |
| 2026-05-05 22:31 | 49.12564 | 9.23881 | 6353 ft | 256 kts | 148° |
| 2026-05-05 22:31 | 49.11156 | 9.25566 | 5904 ft | 258 kts | 143° |
| 2026-05-05 22:31 | 49.09782 | 9.27324 | 5447 ft | 258 kts | 143° |
| 2026-05-05 22:32 | 49.08417 | 9.29083 | 5080 ft | 256 kts | 143° |
| 2026-05-05 22:32 | 49.07058 | 9.30824 | 4999 ft | 254 kts | 143° |
| 2026-05-05 22:32 | 49.05701 | 9.32546 | 4996 ft | 253 kts | 143° |
| 2026-05-05 22:32 | 49.04329 | 9.34235 | 4982 ft | 253 kts | 148° |
| 2026-05-05 22:33 | 49.02779 | 9.35476 | 4784 ft | 251 kts | 160° |
| 2026-05-05 22:33 | 49.01148 | 9.36422 | 4329 ft | 250 kts | 162° |
| 2026-05-05 22:33 | 48.99545 | 9.37301 | 4031 ft | 246 kts | 163° |
| 2026-05-05 22:33 | 48.97939 | 9.38179 | 3988 ft | 245 kts | 163° |
| 2026-05-05 22:34 | 48.96335 | 9.39056 | 3984 ft | 245 kts | 163° |
| 2026-05-05 22:34 | 48.94736 | 9.39934 | 3989 ft | 245 kts | 163° |
| 2026-05-05 22:34 | 48.93133 | 9.40814 | 3986 ft | 245 kts | 163° |
| 2026-05-05 22:34 | 48.91535 | 9.41691 | 3984 ft | 245 kts | 163° |
| 2026-05-05 22:35 | 48.89932 | 9.42564 | 3987 ft | 243 kts | 165° |
| 2026-05-05 22:35 | 48.88319 | 9.43288 | 3982 ft | 241 kts | 168° |
| 2026-05-05 22:35 | 48.86703 | 9.43969 | 3993 ft | 240 kts | 168° |
| 2026-05-05 22:35 | 48.85092 | 9.44644 | 3993 ft | 240 kts | 168° |
| 2026-05-05 22:36 | 48.83528 | 9.45296 | 3995 ft | 225 kts | 168° |
| 2026-05-05 22:36 | 48.82043 | 9.45925 | 3997 ft | 219 kts | 168° |
| 2026-05-05 22:36 | 48.80575 | 9.46553 | 3993 ft | 220 kts | 168° |
| 2026-05-05 22:36 | 48.79114 | 9.47179 | 3987 ft | 212 kts | 168° |
| 2026-05-05 22:37 | 48.77754 | 9.47784 | 4012 ft | 199 kts | 168° |
| 2026-05-05 22:37 | 48.76438 | 9.48381 | 4006 ft | 197 kts | 168° |
| 2026-05-05 22:37 | 48.75116 | 9.48968 | 4002 ft | 198 kts | 168° |
| 2026-05-05 22:37 | 48.73791 | 9.49552 | 4002 ft | 198 kts | 168° |
| 2026-05-05 22:38 | 48.72517 | 9.50368 | 3997 ft | 204 kts | 146° |
| 2026-05-05 22:38 | 48.71724 | 9.52173 | 3995 ft | 214 kts | 108° |
| 2026-05-05 22:38 | 48.71767 | 9.54426 | 4000 ft | 219 kts | 73° |
| 2026-05-05 22:38 | 48.72358 | 9.56558 | 4002 ft | 221 kts | 57° |
| 2026-05-05 22:39 | 48.73402 | 9.58239 | 4001 ft | 219 kts | 36° |
| 2026-05-05 22:39 | 48.74583 | 9.59645 | 3996 ft | 220 kts | 33° |
| 2026-05-05 22:39 | 48.75931 | 9.60688 | 3996 ft | 211 kts | 4° |
| 2026-05-05 22:39 | 48.77296 | 9.60415 | 3998 ft | 196 kts | 326° |
| 2026-05-05 22:40 | 48.78151 | 9.59068 | 3984 ft | 167 kts | 285° |
| 2026-05-05 22:40 | 48.78184 | 9.57394 | 4000 ft | 159 kts | 255° |
| 2026-05-05 22:40 | 48.77668 | 9.55929 | 4002 ft | 160 kts | 229° |
| 2026-05-05 22:40 | 48.76879 | 9.54735 | 4003 ft | 161 kts | 224° |
| 2026-05-05 22:41 | 48.76052 | 9.53582 | 4002 ft | 162 kts | 225° |
| 2026-05-05 22:41 | 48.75360 | 9.52238 | 3983 ft | 161 kts | 234° |
| 2026-05-05 22:41 | 48.74776 | 9.50876 | 3910 ft | 147 kts | 240° |
| 2026-05-05 22:41 | 48.74318 | 9.49583 | 3833 ft | 133 kts | 247° |
| 2026-05-05 22:42 | 48.73939 | 9.48295 | 3763 ft | 137 kts | 247° |
| 2026-05-05 22:42 | 48.73570 | 9.46942 | 3789 ft | 141 kts | 246° |
| 2026-05-05 22:42 | 48.73240 | 9.45543 | 3698 ft | 140 kts | 251° |
| 2026-05-05 22:42 | 48.72982 | 9.44144 | 3567 ft | 134 kts | 254° |
| 2026-05-05 22:43 | 48.72840 | 9.43227 | 3462 ft | 136 kts | 255° |
| 2026-05-05 22:43 | 48.72634 | 9.41805 | 3302 ft | 140 kts | 255° |
| 2026-05-05 22:43 | 48.72408 | 9.40375 | 3165 ft | 138 kts | 251° |
| 2026-05-05 22:43 | 48.72122 | 9.38995 | 3004 ft | 138 kts | 250° |
| 2026-05-05 22:44 | 48.71850 | 9.37605 | 2829 ft | 138 kts | 255° |
| 2026-05-05 22:44 | 48.71639 | 9.36186 | 2605 ft | 138 kts | 252° |
| 2026-05-05 22:44 | 48.71352 | 9.34812 | 2496 ft | 137 kts | 248° |
| 2026-05-05 22:44 | 48.71070 | 9.33431 | 2399 ft | 138 kts | 253° |
| 2026-05-05 22:45 | 48.70820 | 9.32032 | 2209 ft | 137 kts | 251° |
| 2026-05-05 22:45 | 48.70546 | 9.30646 | 2005 ft | 137 kts | 252° |
| 2026-05-05 22:45 | 48.70291 | 9.29264 | 1826 ft | 135 kts | 252° |
| 2026-05-05 22:45 | 48.70029 | 9.27903 | 1710 ft | 135 kts | 254° |
| 2026-05-05 22:46 | 48.69781 | 9.26541 | 1534 ft | 134 kts | 252° |
| 2026-05-05 22:46 | 48.69539 | 9.25177 | 1412 ft | 134 kts | 253° |
| 2026-05-05 22:46 | 48.69282 | 9.23819 | 1296 ft | 134 kts | 253° |
| 2026-05-05 22:46 | 48.69078 | 9.22663 | 1289 ft | 87 kts | 255° |
| 2026-05-05 22:47 | 48.68960 | 9.22043 | 1289 ft | 45 kts | 254° |
| 2026-05-05 22:47 | 48.68877 | 9.21615 | 1289 ft | 40 kts | 254° |
| 2026-05-05 22:47 | 48.68809 | 9.21253 | 1289 ft | 31 kts | 254° |
| 2026-05-05 22:47 | 48.68758 | 9.21126 | 1289 ft | 6 kts | 193° |
| 2026-05-05 22:48 | 48.68687 | 9.21137 | 1289 ft | 12 kts | 171° |
| 2026-05-05 22:48 | 48.68605 | 9.21168 | 1289 ft | 13 kts | 167° |
| 2026-05-05 22:48 | 48.68542 | 9.21111 | 1289 ft | 11 kts | 243° |